RJCH(METAR)
07/17 15:00
METAR RJCH 170600Z 15006KT 9999 FEW008 SCT030 BKN045 22/19 Q1013 RMK
1ST008 3CU030 6CU045 A2993=
戻る
トップページへ戻る
IMOC Co,.Ltd.